sensor_id;sensor_type;location;lat;lon;timestamp;pressure;altitude;pressure_sealevel;temperature;humidity
53635;BME280;39542;-34.932;138.594;2022-11-30T00:00:21;101328.93;;;21.58;53.05
53635;BME280;39542;-34.932;138.594;2022-11-30T00:00:57;101331.57;;;21.59;52.98
53635;BME280;39542;-34.932;138.594;2022-11-30T00:01:31;101330.23;;;21.60;53.00
53635;BME280;39542;-34.932;138.594;2022-11-30T00:02:06;101330.60;;;21.61;52.98
53635;BME280;39542;-34.932;138.594;2022-11-30T00:02:40;101328.78;;;21.61;52.95
53635;BME280;39542;-34.932;138.594;2022-11-30T00:03:16;101327.77;;;21.59;53.02
53635;BME280;39542;-34.932;138.594;2022-11-30T00:03:53;101328.87;;;21.58;53.03
53635;BME280;39542;-34.932;138.594;2022-11-30T00:04:28;101324.16;;;21.60;52.97
53635;BME280;39542;-34.932;138.594;2022-11-30T00:05:03;101323.90;;;21.62;52.91
53635;BME280;39542;-34.932;138.594;2022-11-30T00:05:38;101324.89;;;21.63;52.93
53635;BME280;39542;-34.932;138.594;2022-11-30T00:06:14;101323.46;;;21.62;52.89
53635;BME280;39542;-34.932;138.594;2022-11-30T00:06:49;101318.07;;;21.61;52.98
53635;BME280;39542;-34.932;138.594;2022-11-30T00:07:24;101316.86;;;21.60;52.94
53635;BME280;39542;-34.932;138.594;2022-11-30T00:08:01;101318.80;;;21.63;52.93
53635;BME280;39542;-34.932;138.594;2022-11-30T00:08:36;101314.83;;;21.64;52.89
53635;BME280;39542;-34.932;138.594;2022-11-30T00:09:10;101315.27;;;21.63;52.89
53635;BME280;39542;-34.932;138.594;2022-11-30T00:09:45;101315.69;;;21.66;52.85
53635;BME280;39542;-34.932;138.594;2022-11-30T00:10:20;101314.15;;;21.65;52.83
53635;BME280;39542;-34.932;138.594;2022-11-30T00:10:55;101312.82;;;21.63;52.84
53635;BME280;39542;-34.932;138.594;2022-11-30T00:11:29;101312.97;;;21.63;52.85
53635;BME280;39542;-34.932;138.594;2022-11-30T00:12:04;101310.11;;;21.64;52.83
53635;BME280;39542;-34.932;138.594;2022-11-30T00:12:38;101308.85;;;21.63;52.84
53635;BME280;39542;-34.932;138.594;2022-11-30T00:13:13;101307.26;;;21.63;52.86
53635;BME280;39542;-34.932;138.594;2022-11-30T00:13:49;101307.45;;;21.61;52.90
53635;BME280;39542;-34.932;138.594;2022-11-30T00:14:23;101309.30;;;21.62;52.90
53635;BME280;39542;-34.932;138.594;2022-11-30T00:14:57;101309.37;;;21.64;52.86
53635;BME280;39542;-34.932;138.594;2022-11-30T00:15:32;101303.97;;;21.66;52.82
53635;BME280;39542;-34.932;138.594;2022-11-30T00:16:08;101305.16;;;21.65;52.84
53635;BME280;39542;-34.932;138.594;2022-11-30T00:16:42;101307.72;;;21.65;52.84
53635;BME280;39542;-34.932;138.594;2022-11-30T00:17:18;101307.18;;;21.64;52.86
53635;BME280;39542;-34.932;138.594;2022-11-30T00:17:57;101306.76;;;21.63;52.87
53635;BME280;39542;-34.932;138.594;2022-11-30T00:18:32;101305.60;;;21.65;52.90
53635;BME280;39542;-34.932;138.594;2022-11-30T00:19:06;101303.32;;;21.65;52.84
53635;BME280;39542;-34.932;138.594;2022-11-30T00:19:40;101306.50;;;21.65;52.86
53635;BME280;39542;-34.932;138.594;2022-11-30T00:20:15;101303.90;;;21.64;52.84
53635;BME280;39542;-34.932;138.594;2022-11-30T00:20:51;101303.98;;;21.64;52.85
53635;BME280;39542;-34.932;138.594;2022-11-30T00:21:25;101302.28;;;21.65;52.86
53635;BME280;39542;-34.932;138.594;2022-11-30T00:22:00;101299.15;;;21.68;52.83
53635;BME280;39542;-34.932;138.594;2022-11-30T00:22:34;101300.03;;;21.67;52.76
53635;BME280;39542;-34.932;138.594;2022-11-30T00:23:09;101298.58;;;21.66;52.78
53635;BME280;39542;-34.932;138.594;2022-11-30T00:23:45;101297.75;;;21.66;52.82
53635;BME280;39542;-34.932;138.594;2022-11-30T00:24:21;101297.06;;;21.65;52.90
53635;BME280;39542;-34.932;138.594;2022-11-30T00:24:55;101297.13;;;21.65;52.88
53635;BME280;39542;-34.932;138.594;2022-11-30T00:25:30;101297.08;;;21.68;52.76
53635;BME280;39542;-34.932;138.594;2022-11-30T00:26:05;101295.75;;;21.67;52.83
53635;BME280;39542;-34.932;138.594;2022-11-30T00:26:40;101295.14;;;21.68;52.84
53635;BME280;39542;-34.932;138.594;2022-11-30T00:27:14;101293.53;;;21.69;52.79
53635;BME280;39542;-34.932;138.594;2022-11-30T00:27:49;101293.07;;;21.67;52.81
53635;BME280;39542;-34.932;138.594;2022-11-30T00:28:24;101289.32;;;21.67;52.80
53635;BME280;39542;-34.932;138.594;2022-11-30T00:28:59;101290.45;;;21.68;52.79
53635;BME280;39542;-34.932;138.594;2022-11-30T00:29:33;101291.63;;;21.67;52.81
53635;BME280;39542;-34.932;138.594;2022-11-30T00:30:09;101291.70;;;21.68;52.80
53635;BME280;39542;-34.932;138.594;2022-11-30T00:30:44;101290.35;;;21.67;52.80
53635;BME280;39542;-34.932;138.594;2022-11-30T00:31:19;101289.91;;;21.68;52.78
53635;BME280;39542;-34.932;138.594;2022-11-30T00:31:53;101284.27;;;21.70;52.73
53635;BME280;39542;-34.932;138.594;2022-11-30T00:32:28;101286.18;;;21.71;52.73
53635;BME280;39542;-34.932;138.594;2022-11-30T00:33:02;101288.99;;;21.70;52.72
53635;BME280;39542;-34.932;138.594;2022-11-30T00:33:38;101291.02;;;21.69;52.77
53635;BME280;39542;-34.932;138.594;2022-11-30T00:34:13;101288.18;;;21.68;52.80
53635;BME280;39542;-34.932;138.594;2022-11-30T00:34:48;101289.93;;;21.68;52.80
53635;BME280;39542;-34.932;138.594;2022-11-30T00:35:22;101289.71;;;21.70;52.75
53635;BME280;39542;-34.932;138.594;2022-11-30T00:36:00;101290.18;;;21.69;52.78
53635;BME280;39542;-34.932;138.594;2022-11-30T00:36:34;101289.59;;;21.69;52.73
53635;BME280;39542;-34.932;138.594;2022-11-30T00:37:09;101291.49;;;21.71;52.73
53635;BME280;39542;-34.932;138.594;2022-11-30T00:37:44;101289.89;;;21.71;52.70
53635;BME280;39542;-34.932;138.594;2022-11-30T00:38:19;101290.71;;;21.71;52.73
53635;BME280;39542;-34.932;138.594;2022-11-30T00:38:54;101289.15;;;21.72;52.69
53635;BME280;39542;-34.932;138.594;2022-11-30T00:39:28;101286.46;;;21.72;52.69
53635;BME280;39542;-34.932;138.594;2022-11-30T00:40:03;101287.10;;;21.72;52.71
53635;BME280;39542;-34.932;138.594;2022-11-30T00:40:37;101289.23;;;21.71;52.69
53635;BME280;39542;-34.932;138.594;2022-11-30T00:41:13;101289.12;;;21.72;52.68
53635;BME280;39542;-34.932;138.594;2022-11-30T00:41:48;101287.98;;;21.72;52.72
53635;BME280;39542;-34.932;138.594;2022-11-30T00:42:22;101287.25;;;21.73;52.67
53635;BME280;39542;-34.932;138.594;2022-11-30T00:42:57;101285.54;;;21.73;52.69
53635;BME280;39542;-34.932;138.594;2022-11-30T00:43:31;101282.12;;;21.73;52.71
53635;BME280;39542;-34.932;138.594;2022-11-30T00:44:06;101283.55;;;21.70;52.73
53635;BME280;39542;-34.932;138.594;2022-11-30T00:44:41;101282.23;;;21.69;52.79
53635;BME280;39542;-34.932;138.594;2022-11-30T00:45:16;101282.17;;;21.70;52.74
53635;BME280;39542;-34.932;138.594;2022-11-30T00:45:51;101279.63;;;21.74;52.66
53635;BME280;39542;-34.932;138.594;2022-11-30T00:46:25;101280.14;;;21.75;52.61
53635;BME280;39542;-34.932;138.594;2022-11-30T00:46:59;101279.19;;;21.74;52.61
53635;BME280;39542;-34.932;138.594;2022-11-30T00:47:34;101277.32;;;21.74;52.61
53635;BME280;39542;-34.932;138.594;2022-11-30T00:48:09;101277.68;;;21.72;52.68
53635;BME280;39542;-34.932;138.594;2022-11-30T00:48:43;101277.50;;;21.73;52.70
53635;BME280;39542;-34.932;138.594;2022-11-30T00:49:18;101275.76;;;21.76;52.60
53635;BME280;39542;-34.932;138.594;2022-11-30T00:49:52;101274.99;;;21.78;52.60
53635;BME280;39542;-34.932;138.594;2022-11-30T00:50:27;101273.02;;;21.79;52.53
53635;BME280;39542;-34.932;138.594;2022-11-30T00:51:01;101271.40;;;21.77;52.55
53635;BME280;39542;-34.932;138.594;2022-11-30T00:51:36;101267.64;;;21.75;52.64
53635;BME280;39542;-34.932;138.594;2022-11-30T00:52:11;101266.91;;;21.75;52.61
53635;BME280;39542;-34.932;138.594;2022-11-30T00:52:46;101267.88;;;21.77;52.57
53635;BME280;39542;-34.932;138.594;2022-11-30T00:53:21;101266.21;;;21.76;52.60
53635;BME280;39542;-34.932;138.594;2022-11-30T00:53:55;101265.02;;;21.75;52.53
53635;BME280;39542;-34.932;138.594;2022-11-30T00:54:35;101264.28;;;21.74;52.66
53635;BME280;39542;-34.932;138.594;2022-11-30T00:55:10;101265.63;;;21.73;52.64
53635;BME280;39542;-34.932;138.594;2022-11-30T00:55:45;101264.38;;;21.75;52.61
53635;BME280;39542;-34.932;138.594;2022-11-30T00:56:20;101262.60;;;21.78;52.47
53635;BME280;39542;-34.932;138.594;2022-11-30T00:56:57;101265.19;;;21.77;52.58
53635;BME280;39542;-34.932;138.594;2022-11-30T00:57:31;101267.19;;;21.75;52.58
53635;BME280;39542;-34.932;138.594;2022-11-30T00:58:08;101267.53;;;21.76;52.58
53635;BME280;39542;-34.932;138.594;2022-11-30T00:58:44;101265.24;;;21.74;52.57
53635;BME280;39542;-34.932;138.594;2022-11-30T00:59:19;101266.18;;;21.74;52.57
53635;BME280;39542;-34.932;138.594;2022-11-30T00:59:54;101267.47;;;21.74;52.52
53635;BME280;39542;-34.932;138.594;2022-11-30T01:00:29;101266.95;;;21.76;52.51
53635;BME280;39542;-34.932;138.594;2022-11-30T01:01:04;101266.54;;;21.79;52.49
53635;BME280;39542;-34.932;138.594;2022-11-30T01:01:39;101263.43;;;21.76;52.53
53635;BME280;39542;-34.932;138.594;2022-11-30T01:02:14;101261.76;;;21.75;52.54
53635;BME280;39542;-34.932;138.594;2022-11-30T01:02:49;101260.35;;;21.77;52.53
53635;BME280;39542;-34.932;138.594;2022-11-30T01:03:26;101262.14;;;21.76;52.52
53635;BME280;39542;-34.932;138.594;2022-11-30T01:04:01;101261.39;;;21.75;52.57
53635;BME280;39542;-34.932;138.594;2022-11-30T01:04:35;101256.69;;;21.78;52.53
53635;BME280;39542;-34.932;138.594;2022-11-30T01:05:11;101256.72;;;21.75;52.56
53635;BME280;39542;-34.932;138.594;2022-11-30T01:05:45;101257.30;;;21.76;52.55
53635;BME280;39542;-34.932;138.594;2022-11-30T01:06:20;101259.03;;;21.79;52.49
53635;BME280;39542;-34.932;138.594;2022-11-30T01:06:55;101258.59;;;21.81;52.50
53635;BME280;39542;-34.932;138.594;2022-11-30T01:07:29;101257.35;;;21.79;52.46
53635;BME280;39542;-34.932;138.594;2022-11-30T01:08:05;101260.13;;;21.77;52.55
53635;BME280;39542;-34.932;138.594;2022-11-30T01:08:41;101253.93;;;21.77;52.54
53635;BME280;39542;-34.932;138.594;2022-11-30T01:09:16;101252.98;;;21.76;52.55
53635;BME280;39542;-34.932;138.594;2022-11-30T01:09:50;101252.63;;;21.77;52.56
53635;BME280;39542;-34.932;138.594;2022-11-30T01:10:25;101250.26;;;21.77;52.54
53635;BME280;39542;-34.932;138.594;2022-11-30T01:11:05;101251.56;;;21.79;52.54
53635;BME280;39542;-34.932;138.594;2022-11-30T01:11:41;101252.09;;;21.80;52.49
53635;BME280;39542;-34.932;138.594;2022-11-30T01:12:16;101252.97;;;21.78;52.52
53635;BME280;39542;-34.932;138.594;2022-11-30T01:12:50;101251.07;;;21.78;52.49
53635;BME280;39542;-34.932;138.594;2022-11-30T01:13:24;101249.36;;;21.81;52.49
53635;BME280;39542;-34.932;138.594;2022-11-30T01:14:00;101249.09;;;21.80;52.50
53635;BME280;39542;-34.932;138.594;2022-11-30T01:14:34;101248.67;;;21.80;52.53
53635;BME280;39542;-34.932;138.594;2022-11-30T01:15:10;101248.33;;;21.77;52.55
53635;BME280;39542;-34.932;138.594;2022-11-30T01:15:45;101247.25;;;21.76;52.54
53635;BME280;39542;-34.932;138.594;2022-11-30T01:16:22;101248.62;;;21.80;52.50
53635;BME280;39542;-34.932;138.594;2022-11-30T01:16:57;101248.05;;;21.82;52.43
53635;BME280;39542;-34.932;138.594;2022-11-30T01:17:31;101249.35;;;21.83;52.44
53635;BME280;39542;-34.932;138.594;2022-11-30T01:18:06;101244.82;;;21.81;52.49
53635;BME280;39542;-34.932;138.594;2022-11-30T01:18:40;101245.35;;;21.78;52.54
53635;BME280;39542;-34.932;138.594;2022-11-30T01:19:15;101245.41;;;21.77;52.61
53635;BME280;39542;-34.932;138.594;2022-11-30T01:19:49;101244.31;;;21.79;52.48
53635;BME280;39542;-34.932;138.594;2022-11-30T01:20:24;101243.44;;;21.82;52.46
53635;BME280;39542;-34.932;138.594;2022-11-30T01:20:59;101242.31;;;21.83;52.42
53635;BME280;39542;-34.932;138.594;2022-11-30T01:21:33;101239.24;;;21.85;52.39
53635;BME280;39542;-34.932;138.594;2022-11-30T01:22:09;101240.49;;;21.85;52.38
53635;BME280;39542;-34.932;138.594;2022-11-30T01:22:43;101239.01;;;21.85;52.43
53635;BME280;39542;-34.932;138.594;2022-11-30T01:23:17;101239.73;;;21.87;52.42
53635;BME280;39542;-34.932;138.594;2022-11-30T01:23:52;101238.83;;;21.88;52.36
53635;BME280;39542;-34.932;138.594;2022-11-30T01:24:27;101238.05;;;21.86;52.42
53635;BME280;39542;-34.932;138.594;2022-11-30T01:25:02;101236.73;;;21.85;52.42
53635;BME280;39542;-34.932;138.594;2022-11-30T01:25:38;101232.36;;;21.82;52.51
53635;BME280;39542;-34.932;138.594;2022-11-30T01:26:13;101232.45;;;21.83;52.45
53635;BME280;39542;-34.932;138.594;2022-11-30T01:26:48;101229.33;;;21.87;52.37
53635;BME280;39542;-34.932;138.594;2022-11-30T01:27:22;101228.86;;;21.89;52.35
53635;BME280;39542;-34.932;138.594;2022-11-30T01:27:57;101229.56;;;21.90;52.39
53635;BME280;39542;-34.932;138.594;2022-11-30T01:28:32;101227.48;;;21.88;52.31
53635;BME280;39542;-34.932;138.594;2022-11-30T01:29:08;101225.48;;;21.85;52.40
53635;BME280;39542;-34.932;138.594;2022-11-30T01:29:42;101222.37;;;21.82;52.47
53635;BME280;39542;-34.932;138.594;2022-11-30T01:30:18;101224.03;;;21.85;52.46
53635;BME280;39542;-34.932;138.594;2022-11-30T01:31:02;101221.83;;;21.85;52.43
53635;BME280;39542;-34.932;138.594;2022-11-30T01:31:38;101221.32;;;21.88;52.40
53635;BME280;39542;-34.932;138.594;2022-11-30T01:32:12;101221.24;;;21.88;52.40
53635;BME280;39542;-34.932;138.594;2022-11-30T01:32:47;101221.27;;;21.87;52.40
53635;BME280;39542;-34.932;138.594;2022-11-30T01:33:21;101219.34;;;21.87;52.40
53635;BME280;39542;-34.932;138.594;2022-11-30T01:33:56;101220.00;;;21.88;52.39
53635;BME280;39542;-34.932;138.594;2022-11-30T01:34:30;101218.78;;;21.89;52.36
53635;BME280;39542;-34.932;138.594;2022-11-30T01:35:05;101218.64;;;21.88;52.44
53635;BME280;39542;-34.932;138.594;2022-11-30T01:35:41;101217.42;;;21.84;52.43
53635;BME280;39542;-34.932;138.594;2022-11-30T01:36:18;101215.58;;;21.84;52.45
53635;BME280;39542;-34.932;138.594;2022-11-30T01:36:52;101213.59;;;21.87;52.47
53635;BME280;39542;-34.932;138.594;2022-11-30T01:37:27;101212.22;;;21.91;52.31
53635;BME280;39542;-34.932;138.594;2022-11-30T01:38:02;101212.28;;;21.91;52.42
53635;BME280;39542;-34.932;138.594;2022-11-30T01:38:38;101211.49;;;21.93;52.33
53635;BME280;39542;-34.932;138.594;2022-11-30T01:39:14;101210.94;;;21.90;52.37
53635;BME280;39542;-34.932;138.594;2022-11-30T01:39:48;101209.89;;;21.88;52.42
53635;BME280;39542;-34.932;138.594;2022-11-30T01:40:23;101209.21;;;21.88;52.43
53635;BME280;39542;-34.932;138.594;2022-11-30T01:40:57;101207.20;;;21.91;52.36
53635;BME280;39542;-34.932;138.594;2022-11-30T01:41:32;101206.11;;;21.92;52.36
53635;BME280;39542;-34.932;138.594;2022-11-30T01:42:11;101207.39;;;21.94;52.35
53635;BME280;39542;-34.932;138.594;2022-11-30T01:42:49;101205.57;;;21.95;52.29
53635;BME280;39542;-34.932;138.594;2022-11-30T01:43:39;101208.42;;;21.94;52.29
53635;BME280;39542;-34.932;138.594;2022-11-30T01:45:19;101208.09;;;21.94;52.32
53635;BME280;39542;-34.932;138.594;2022-11-30T01:45:54;101204.36;;;21.90;52.41
53635;BME280;39542;-34.932;138.594;2022-11-30T01:46:32;101203.45;;;21.90;52.44
53635;BME280;39542;-34.932;138.594;2022-11-30T01:47:11;101205.37;;;21.94;52.36
53635;BME280;39542;-34.932;138.594;2022-11-30T01:47:49;101203.91;;;21.95;52.35
53635;BME280;39542;-34.932;138.594;2022-11-30T01:48:25;101200.98;;;21.97;52.36
53635;BME280;39542;-34.932;138.594;2022-11-30T01:49:08;101201.06;;;21.97;52.34
53635;BME280;39542;-34.932;138.594;2022-11-30T01:49:50;101200.06;;;21.95;52.41
53635;BME280;39542;-34.932;138.594;2022-11-30T01:50:30;101200.99;;;21.95;52.38
53635;BME280;39542;-34.932;138.594;2022-11-30T01:51:07;101200.33;;;21.97;52.33
53635;BME280;39542;-34.932;138.594;2022-11-30T01:51:44;101199.17;;;21.98;52.34
53635;BME280;39542;-34.932;138.594;2022-11-30T01:52:22;101200.05;;;21.98;52.42
53635;BME280;39542;-34.932;138.594;2022-11-30T01:52:59;101196.52;;;21.99;52.30
53635;BME280;39542;-34.932;138.594;2022-11-30T01:53:34;101196.41;;;22.00;52.35
53635;BME280;39542;-34.932;138.594;2022-11-30T01:54:11;101197.35;;;22.00;52.30
53635;BME280;39542;-34.932;138.594;2022-11-30T01:54:48;101196.01;;;21.97;52.32
53635;BME280;39542;-34.932;138.594;2022-11-30T01:55:28;101196.07;;;21.96;52.37
53635;BME280;39542;-34.932;138.594;2022-11-30T01:56:06;101196.28;;;21.95;52.39
53635;BME280;39542;-34.932;138.594;2022-11-30T01:56:46;101193.24;;;21.95;52.40
53635;BME280;39542;-34.932;138.594;2022-11-30T01:57:28;101190.22;;;21.98;52.38
53635;BME280;39542;-34.932;138.594;2022-11-30T01:58:06;101191.11;;;22.01;52.31
53635;BME280;39542;-34.932;138.594;2022-11-30T01:58:43;101189.87;;;22.01;52.30
53635;BME280;39542;-34.932;138.594;2022-11-30T01:59:17;101186.32;;;22.02;52.29
53635;BME280;39542;-34.932;138.594;2022-11-30T01:59:56;101186.17;;;22.00;52.31
53635;BME280;39542;-34.932;138.594;2022-11-30T02:00:33;101180.47;;;21.98;52.34
53635;BME280;39542;-34.932;138.594;2022-11-30T02:01:08;101182.34;;;22.00;52.27
53635;BME280;39542;-34.932;138.594;2022-11-30T02:01:42;101180.52;;;22.02;52.26
53635;BME280;39542;-34.932;138.594;2022-11-30T02:02:18;101177.76;;;22.02;52.28
53635;BME280;39542;-34.932;138.594;2022-11-30T02:02:59;101178.94;;;22.03;52.22
53635;BME280;39542;-34.932;138.594;2022-11-30T02:03:38;101177.24;;;22.02;52.26
53635;BME280;39542;-34.932;138.594;2022-11-30T02:04:20;101177.08;;;22.02;52.29
53635;BME280;39542;-34.932;138.594;2022-11-30T02:04:55;101174.75;;;22.02;52.26
53635;BME280;39542;-34.932;138.594;2022-11-30T02:05:30;101175.84;;;22.04;52.23
53635;BME280;39542;-34.932;138.594;2022-11-30T02:06:06;101174.06;;;22.02;52.31
53635;BME280;39542;-34.932;138.594;2022-11-30T02:06:42;101174.69;;;22.00;52.35
53635;BME280;39542;-34.932;138.594;2022-11-30T02:07:17;101176.08;;;22.00;52.34
53635;BME280;39542;-34.932;138.594;2022-11-30T02:07:52;101175.76;;;22.04;52.29
53635;BME280;39542;-34.932;138.594;2022-11-30T02:08:28;101174.70;;;22.04;52.29
53635;BME280;39542;-34.932;138.594;2022-11-30T02:09:03;101172.46;;;22.02;52.33
53635;BME280;39542;-34.932;138.594;2022-11-30T02:09:42;101168.73;;;22.01;52.31
53635;BME280;39542;-34.932;138.594;2022-11-30T02:10:21;101168.92;;;22.00;52.37
53635;BME280;39542;-34.932;138.594;2022-11-30T02:11:03;101170.72;;;22.01;52.31
53635;BME280;39542;-34.932;138.594;2022-11-30T02:11:38;101167.69;;;22.03;52.30
53635;BME280;39542;-34.932;138.594;2022-11-30T02:12:21;101168.92;;;22.06;52.27
53635;BME280;39542;-34.932;138.594;2022-11-30T02:13:19;101167.63;;;22.06;52.22
53635;BME280;39542;-34.932;138.594;2022-11-30T02:14:15;101164.58;;;22.05;52.28
53635;BME280;39542;-34.932;138.594;2022-11-30T02:14:55;101161.70;;;22.08;52.27
53635;BME280;39542;-34.932;138.594;2022-11-30T02:15:41;101157.66;;;22.07;52.27
53635;BME280;39542;-34.932;138.594;2022-11-30T02:16:24;101155.26;;;22.09;52.21
53635;BME280;39542;-34.932;138.594;2022-11-30T02:17:09;101156.17;;;22.07;52.24
53635;BME280;39542;-34.932;138.594;2022-11-30T02:17:52;101153.95;;;22.06;52.30
53635;BME280;39542;-34.932;138.594;2022-11-30T02:18:35;101153.59;;;22.12;52.20
53635;BME280;39542;-34.932;138.594;2022-11-30T02:19:33;101148.00;;;22.12;52.16
53635;BME280;39542;-34.932;138.594;2022-11-30T02:21:22;101146.28;;;22.09;52.26
53635;BME280;39542;-34.932;138.594;2022-11-30T02:22:02;101141.85;;;22.11;52.23
53635;BME280;39542;-34.932;138.594;2022-11-30T02:22:56;101141.08;;;22.12;52.22
53635;BME280;39542;-34.932;138.594;2022-11-30T02:23:44;101139.13;;;22.12;52.22
53635;BME280;39542;-34.932;138.594;2022-11-30T02:24:38;101137.94;;;22.13;52.25
53635;BME280;39542;-34.932;138.594;2022-11-30T02:25:20;101137.71;;;22.13;52.16
53635;BME280;39542;-34.932;138.594;2022-11-30T02:26:06;101136.06;;;22.11;52.20
53635;BME280;39542;-34.932;138.594;2022-11-30T02:27:14;101135.98;;;22.11;52.22
53635;BME280;39542;-34.932;138.594;2022-11-30T02:28:06;101134.32;;;22.12;52.24
53635;BME280;39542;-34.932;138.594;2022-11-30T02:29:02;101131.14;;;22.14;52.21
53635;BME280;39542;-34.932;138.594;2022-11-30T02:29:42;101131.17;;;22.13;52.23
53635;BME280;39542;-34.932;138.594;2022-11-30T02:30:20;101131.61;;;22.11;52.21
53635;BME280;39542;-34.932;138.594;2022-11-30T02:30:55;101129.87;;;22.11;52.26
53635;BME280;39542;-34.932;138.594;2022-11-30T02:31:46;101125.82;;;22.13;52.24
53635;BME280;39542;-34.932;138.594;2022-11-30T02:32:27;101127.23;;;22.17;52.19
53635;BME280;39542;-34.932;138.594;2022-11-30T02:33:06;101127.64;;;22.18;52.13
53635;BME280;39542;-34.932;138.594;2022-11-30T02:33:43;101126.86;;;22.16;52.24
53635;BME280;39542;-34.932;138.594;2022-11-30T02:34:20;101126.36;;;22.14;52.24
53635;BME280;39542;-34.932;138.594;2022-11-30T02:34:58;101125.19;;;22.16;52.19
53635;BME280;39542;-34.932;138.594;2022-11-30T02:35:35;101125.31;;;22.17;52.18
53635;BME280;39542;-34.932;138.594;2022-11-30T02:36:12;101126.58;;;22.18;52.12
53635;BME280;39542;-34.932;138.594;2022-11-30T02:36:47;101124.45;;;22.19;52.20
53635;BME280;39542;-34.932;138.594;2022-11-30T02:37:24;101123.17;;;22.17;52.13
53635;BME280;39542;-34.932;138.594;2022-11-30T02:38:00;101121.26;;;22.16;52.18
53635;BME280;39542;-34.932;138.594;2022-11-30T02:38:37;101118.35;;;22.20;52.14
53635;BME280;39542;-34.932;138.594;2022-11-30T02:39:12;101115.81;;;22.21;52.06
53635;BME280;39542;-34.932;138.594;2022-11-30T02:39:46;101116.10;;;22.22;52.06
53635;BME280;39542;-34.932;138.594;2022-11-30T02:40:21;101118.57;;;22.23;52.07
53635;BME280;39542;-34.932;138.594;2022-11-30T02:40:57;101118.17;;;22.21;52.10
53635;BME280;39542;-34.932;138.594;2022-11-30T02:41:37;101120.03;;;22.19;52.16
53635;BME280;39542;-34.932;138.594;2022-11-30T02:42:13;101122.35;;;22.21;52.08
53635;BME280;39542;-34.932;138.594;2022-11-30T02:42:48;101117.85;;;22.21;52.10
53635;BME280;39542;-34.932;138.594;2022-11-30T02:43:27;101118.78;;;22.22;52.11
53635;BME280;39542;-34.932;138.594;2022-11-30T02:44:03;101120.99;;;22.22;52.10
53635;BME280;39542;-34.932;138.594;2022-11-30T02:44:39;101120.23;;;22.21;52.12
53635;BME280;39542;-34.932;138.594;2022-11-30T02:45:13;101119.93;;;22.21;52.14
53635;BME280;39542;-34.932;138.594;2022-11-30T02:45:55;101118.24;;;22.22;52.12
53635;BME280;39542;-34.932;138.594;2022-11-30T02:46:37;101113.26;;;22.23;52.13
53635;BME280;39542;-34.932;138.594;2022-11-30T02:47:19;101110.35;;;22.24;52.08
53635;BME280;39542;-34.932;138.594;2022-11-30T02:47:57;101097.53;;;22.22;52.11
53635;BME280;39542;-34.932;138.594;2022-11-30T02:48:41;101096.96;;;22.23;52.07
53635;BME280;39542;-34.932;138.594;2022-11-30T02:49:25;101115.22;;;22.26;52.02
53635;BME280;39542;-34.932;138.594;2022-11-30T02:50:05;101115.22;;;22.26;52.04
53635;BME280;39542;-34.932;138.594;2022-11-30T02:50:46;101118.35;;;22.24;52.08
53635;BME280;39542;-34.932;138.594;2022-11-30T02:51:25;101119.59;;;22.21;52.11
53635;BME280;39542;-34.932;138.594;2022-11-30T02:52:03;101115.56;;;22.23;52.11
53635;BME280;39542;-34.932;138.594;2022-11-30T02:52:39;101116.95;;;22.25;52.11
53635;BME280;39542;-34.932;138.594;2022-11-30T02:53:14;101111.93;;;22.23;52.10
53635;BME280;39542;-34.932;138.594;2022-11-30T02:53:49;101109.94;;;22.25;52.04
53635;BME280;39542;-34.932;138.594;2022-11-30T02:54:24;101115.42;;;22.25;52.09
53635;BME280;39542;-34.932;138.594;2022-11-30T02:55:01;101118.65;;;22.22;52.14
53635;BME280;39542;-34.932;138.594;2022-11-30T02:55:35;101121.00;;;22.24;52.13
53635;BME280;39542;-34.932;138.594;2022-11-30T02:56:10;101119.61;;;22.24;52.10
53635;BME280;39542;-34.932;138.594;2022-11-30T02:56:44;101122.51;;;22.26;52.09
53635;BME280;39542;-34.932;138.594;2022-11-30T02:57:19;101120.13;;;22.24;52.14
53635;BME280;39542;-34.932;138.594;2022-11-30T02:57:55;101120.15;;;22.25;52.12
53635;BME280;39542;-34.932;138.594;2022-11-30T02:58:29;101117.28;;;22.24;52.11
53635;BME280;39542;-34.932;138.594;2022-11-30T02:59:04;101115.52;;;22.26;52.09
53635;BME280;39542;-34.932;138.594;2022-11-30T02:59:38;101107.12;;;22.27;52.09
53635;BME280;39542;-34.932;138.594;2022-11-30T03:00:14;101107.94;;;22.27;52.07
53635;BME280;39542;-34.932;138.594;2022-11-30T03:00:48;101106.71;;;22.28;52.02
53635;BME280;39542;-34.932;138.594;2022-11-30T03:01:24;101102.28;;;22.26;52.08
53635;BME280;39542;-34.932;138.594;2022-11-30T03:01:58;101102.50;;;22.24;52.14
53635;BME280;39542;-34.932;138.594;2022-11-30T03:02:33;101101.98;;;22.27;52.12
53635;BME280;39542;-34.932;138.594;2022-11-30T03:03:07;101099.16;;;22.27;52.11
53635;BME280;39542;-34.932;138.594;2022-11-30T03:03:42;101097.24;;;22.26;52.14
53635;BME280;39542;-34.932;138.594;2022-11-30T03:04:16;101098.69;;;22.27;52.13
53635;BME280;39542;-34.932;138.594;2022-11-30T03:04:52;101104.05;;;22.29;52.08
53635;BME280;39542;-34.932;138.594;2022-11-30T03:05:26;101103.89;;;22.30;52.08
53635;BME280;39542;-34.932;138.594;2022-11-30T03:06:01;101109.47;;;22.31;52.05
53635;BME280;39542;-34.932;138.594;2022-11-30T03:06:35;101106.98;;;22.31;52.08
53635;BME280;39542;-34.932;138.594;2022-11-30T03:07:10;101104.90;;;22.30;52.16